AirNav   ATP
 
 470 users online  

51K Cedar Air Park
Olathe, Kansas, USA

GOING TO OLATHE?


FAA INFORMATION EFFECTIVE 07 DECEMBER 2017

Location

FAA Identifier: 51K
Lat/Long: 38-55-51.9400N / 094-53-05.3200W
38-55.865667N / 094-53.088667W
38.9310944 / -94.8848111
(estimated)
Elevation: 1024 ft. / 312 m (estimated)
Variation: 05E (1985)
From city: 4 miles NW of OLATHE, KS
Time zone: UTC -6 (UTC -5 during Daylight Saving Time)
Zip code: 66061

Airport Operations

Airport use: Open to the public
Activation date: 10/1967
Control tower: no
ARTCC: KANSAS CITY CENTER
FSS: COLUMBIA FLIGHT SERVICE STATION
NOTAMs facility: COU (NOTAM-D service available)
Attendance: UNATNND
Wind indicator: yes
Segmented circle: no

Airport Communications

CTAF/UNICOM: 122.7
WX ASOS at IXD (6 nm S): 135.325 (913-780-6987)
WX ASOS at OJC (9 nm SE): PHONE 913-780-6969
WX ASOS at LWC (16 nm W): 121.225 (785-749-1309)
WX ASOS at MKC (18 nm NE): PHONE 816-329-2843

Nearby radio navigation aids

VOR radial/distance  VOR name  Freq  Var
MCIr193/22.3KANSAS CITY VORTAC113.2505E
TOPr107/33.3TOPEKA VORTAC117.8005E
ANXr247/36.6NAPOLEON VORTAC114.0007E

 
NDB name  Hdg/Dist  Freq  Var  ID
NEWBN081/12.633804EJZ .--- --..
HERBB323/12.742004EPK .--. -.-

Airport Services

Parking: tiedowns
Bottled oxygen: NONE
Bulk oxygen: NONE

Runway Information

Runway 17/35

Dimensions: 2440 x 75 ft. / 744 x 23 m
Surface: turf, in good condition
Runway edge markings: RY OUTLINED WITH CONC PADS AT 300 FT INTRVLS. RY ENDS MKD WITH YELLOW CONC PADS.
Gradient: SOUTH.
RUNWAY 17  RUNWAY 35
Latitude: 38-56.066333N38-55.665000N
Longitude: 094-53.100500W094-53.076833W
Elevation: 998.0 ft.1020.0 ft.
Gradient: 0.9% UP
Traffic pattern: leftleft
Runway heading: 172 magnetic, 177 true352 magnetic, 357 true
Obstructions: 21 ft. tree, 423 ft. from runway, 74 ft. left of centerline, 20:1 slope to clear51 ft. trees, 145 ft. from runway, 84 ft. right of centerline, 2:1 slope to clear

Airport Ownership and Management from official FAA records

Ownership: Privately-owned
Owner: PATRICIA HOCKETT
25900 COLLEGE BLVD.
OLATHE, KS 66061
Phone 913-782-5176
Manager: PATRICIA HOCKETT WINGS UNLMTD INC
25900 COLLEGE BLVD.
OLATHE, KS 66061
Phone 913-782-5176

Airport Operational Statistics

Aircraft based on the field: 4
Single engine airplanes: 4
    
Aircraft operations: avg 63/week *
91% local general aviation
9% transient general aviation
* for 12-month period ending 31 August 2015

Additional Remarks

FOR CD CTC MCI APCH AT 816-329-2710.
GOLF COURSE N END OF RY 17 CAN BE MISTAKEN FOR ARPT.
WILDLIFE ON & INVOF ARPT.
TREES BOTH SIDES OF RWY.

Instrument Procedures

There are no published instrument procedures at 51K.

Some nearby airports with instrument procedures:

KIXD - New Century AirCenter Airport (6 nm S)
KOJC - Johnson County Executive Airport (9 nm SE)
KLWC - Lawrence Municipal Airport (16 nm W)
KMKC - Charles B Wheeler Downtown Airport (18 nm NE)
KMCI - Kansas City International Airport (23 nm N)
 
Loc | Ops | Rwys | IFR | FBO | Links
Com | Nav | Svcs | Stats | Notes

Kansas City Aviation Department
 
Area around 51K (Cedar Air Park)
 
Road maps at: MapQuest Bing Google
 
Aerial photo
WARNING: Photo may not be current or correct
Aerial photo of 51K (Cedar Air Park)
Photo taken 27-Oct-2012
looking south.

Do you have a better or more recent aerial photo of Cedar Air Park that you would like to share? If so, please send us your photo.

 
Sectional chart

 
Airport distance calculator
Flying to Cedar Air Park? Find the distance to fly.

From to 51K

Sunrise and sunset
Times for 17-Dec-2017
 Local
(UTC-6)
 Zulu
(UTC)
Morning civil twilight07:0313:03
Sunrise07:3313:33
Sunset16:5822:58
Evening civil twilight17:2823:28

Current date and time
Zulu (UTC)  18-Dec-2017 05:49:43
Local (UTC-6)  17-Dec-2017 23:49:43
 
METAR
KIXD 
7nm S 
180453Z AUTO 21007KT 6SM BR OVC005 06/06 A3005 RMK AO2 SLP177 T00560056
KOJC 
9nm SE 
180524Z AUTO 21004KT 5SM BR BKN008 OVC019 05/05 A3004 RMK AO2 T00500050
KLWC 
16nm W 
180531Z AUTO 25004KT 8SM BKN022 OVC038 07/06 A3004 RMK AO2 T00720056
KMKC 
17nm NE 
180454Z 20010KT 10SM OVC030 08/05 A3003 RMK AO2 SLP171 T00780050
TAF
KIXD 
7nm S 
171752Z 1718/1818 24006KT P6SM BKN010 TEMPO 1718/1719 BKN008 FM172200 VRB04KT P6SM BKN025 FM180000 20004KT P6SM OVC035 FM180700 23005KT P6SM BKN020 FM181300 23006KT P6SM SCT030
KMKC 
17nm NE 
171720Z 1718/1818 24006KT P6SM BKN010 FM172000 VRB04KT P6SM BKN025 FM180000 20004KT P6SM OVC035 FM180600 23005KT P6SM BKN020 FM181000 23006KT P6SM SCT030
NOTAMs
Click for the latest NOTAMs
NOTAMs are issued by the DoD/FAA and will open in a separate window not controlled by AirNav.

 

 
 

Would you like to see your business listed on this page?

 If your business provides an interesting product or service to pilots, flight crews, aircraft, or users of the Cedar Air Park, you should consider listing it here.  To start the listing process, click on the button below
 
Add a business
 

Other Pages about Cedar Air Park

Update a link
 
Copyright © AirNav, LLC. All rights reserved. Privacy Policy  Contact